Time;durP1;ratioP1;P1;durP2;ratioP2;P2;SDS_P1;SDS_P2;PMS_P1;PMS_P2;Temp;Humidity;BMP_temperature;BMP_pressure;BME280_temperature;BME280_humidity;BME280_pressure;Samples;Min_cycle;Max_cycle;Signal;HPM_P1;HPM_P2
2022/08/04 00:00:03;;;;;;;7.82;6.80;;;;;;;19.97;87.38;100740.31;4992874;28;20499;-77
2022/08/04 00:02:42;;;;;;;7.90;7.20;;;;;;;19.94;87.78;100733.31;5075649;23;20052;-77
2022/08/04 00:05:34;;;;;;;7.13;6.53;;;;;;;19.88;87.93;100736.34;4991441;28;20037;-78
2022/08/04 00:08:25;;;;;;;7.85;7.15;;;;;;;19.85;88.12;100732.97;4994541;28;20573;-76
2022/08/04 00:10:57;;;;;;;7.28;6.68;;;;;;;19.83;88.78;100732.19;4984499;28;20034;-79
2022/08/04 00:13:28;;;;;;;7.68;6.70;;;;;;;19.78;89.22;100737.81;4987130;28;20038;-79
2022/08/04 00:16:03;;;;;;;7.70;7.00;;;;;;;19.75;89.52;100731.75;5010560;28;20411;-78
2022/08/04 00:18:48;;;;;;;7.60;6.95;;;;;;;19.70;89.84;100734.72;4991489;28;20038;-79
2022/08/04 00:21:20;;;;;;;7.93;7.05;;;;;;;19.65;90.12;100740.31;5016372;28;20536;-76
2022/08/04 00:23:48;;;;;;;7.90;7.20;;;;;;;19.62;90.48;100747.69;4999833;28;20426;-76
2022/08/04 00:26:35;;;;;;;7.85;7.25;;;;;;;19.62;90.90;100742.34;5004051;28;20132;-79
2022/08/04 00:29:02;;;;;;;7.82;7.13;;;;;;;19.59;91.06;100734.44;4990919;28;20042;-76
2022/08/04 00:31:28;;;;;;;7.20;6.60;;;;;;;19.55;91.47;100738.22;4995005;28;20390;-78
2022/08/04 00:34:15;;;;;;;7.38;6.78;;;;;;;19.51;91.81;100750.94;4998165;28;20447;-79
2022/08/04 00:36:42;;;;;;;7.13;6.55;;;;;;;19.50;91.52;100741.16;4990071;28;20042;-77
2022/08/04 00:39:13;;;;;;;7.60;6.95;;;;;;;19.46;91.55;100739.63;5012962;28;20042;-79
2022/08/04 00:42:08;;;;;;;7.93;7.22;;;;;;;19.44;91.45;100743.34;5003593;28;20117;-77
2022/08/04 00:44:58;;;;;;;7.63;6.93;;;;;;;19.40;91.18;100743.50;5011048;28;20039;-77
2022/08/04 00:47:43;;;;;;;7.13;6.35;;;;;;;19.37;91.58;100745.50;5005127;28;20046;-78
2022/08/04 00:50:31;;;;;;;7.05;6.45;;;;;;;19.35;91.47;100742.03;4986873;28;20438;-77
2022/08/04 00:53:08;;;;;;;7.30;6.60;;;;;;;19.32;91.40;100734.16;5006590;28;20044;-79
2022/08/04 00:56:10;;;;;;;7.32;6.68;;;;;;;19.27;91.61;100741.59;4979690;28;20049;-79
2022/08/04 00:58:46;;;;;;;7.30;6.70;;;;;;;19.24;91.71;100739.06;4988440;28;20045;-77
2022/08/04 01:01:34;;;;;;;7.07;6.47;;;;;;;19.21;92.35;100739.25;4986017;28;20046;-78
2022/08/04 01:04:19;;;;;;;7.55;6.85;;;;;;;19.19;92.14;100741.16;5011642;28;20038;-77
2022/08/04 01:07:21;;;;;;;7.03;6.43;;;;;;;19.16;91.67;100735.94;4982972;28;20037;-79
2022/08/04 01:10:18;;;;;;;7.30;6.72;;;;;;;19.14;91.43;100741.38;4991712;28;20088;-75
2022/08/04 01:13:01;;;;;;;7.22;6.63;;;;;;;19.09;90.92;100741.66;5012896;28;20048;-77
2022/08/04 01:15:53;;;;;;;7.60;7.00;;;;;;;19.04;90.73;100735.69;4973274;28;20038;-77
2022/08/04 01:18:49;;;;;;;6.50;6.00;;;;;;;19.00;90.87;100735.91;5010050;28;20052;-78
2022/08/04 01:21:29;;;;;;;7.68;6.97;;;;;;;18.96;91.29;100729.88;5009691;28;20042;-76
2022/08/04 01:24:06;;;;;;;6.85;6.35;;;;;;;18.93;92.11;100732.72;4989911;28;20042;-77
2022/08/04 01:27:03;;;;;;;6.80;6.20;;;;;;;18.92;92.63;100730.09;4980698;28;20042;-77
2022/08/04 01:29:37;;;;;;;6.82;6.20;;;;;;;18.92;92.78;100735.47;5009565;28;20120;-77
2022/08/04 01:32:19;;;;;;;7.28;6.68;;;;;;;18.90;92.46;100737.34;5007692;28;20053;-77
2022/08/04 01:34:55;;;;;;;7.30;6.60;;;;;;;18.87;92.86;100734.84;4968957;28;20041;-76
2022/08/04 01:37:45;;;;;;;6.50;6.00;;;;;;;18.85;93.16;100732.28;4993869;28;20045;-78
2022/08/04 01:40:13;;;;;;;6.78;6.15;;;;;;;18.86;92.82;100736.69;5007573;28;20029;-77
2022/08/04 01:42:41;;;;;;;7.20;6.60;;;;;;;18.87;93.23;100737.53;4991923;28;20037;-78
2022/08/04 01:45:10;;;;;;;7.60;7.00;;;;;;;18.87;92.89;100735.72;4990991;28;20046;-77
2022/08/04 01:47:41;;;;;;;7.95;7.25;;;;;;;18.88;92.73;100731.22;5003850;28;20034;-77
2022/08/04 01:50:11;;;;;;;7.88;7.18;;;;;;;18.88;92.80;100731.22;4967929;28;20069;-77
2022/08/04 01:52:40;;;;;;;8.05;7.30;;;;;;;18.86;92.60;100736.69;4977798;28;20506;-79
2022/08/04 01:55:09;;;;;;;8.38;7.68;;;;;;;18.85;91.93;100732.28;4992104;28;20065;-76
2022/08/04 01:57:40;;;;;;;7.80;7.13;;;;;;;18.85;91.46;100729.59;4995625;28;20042;-78
2022/08/04 02:00:08;;;;;;;7.60;6.90;;;;;;;18.82;91.15;100732.41;5006501;28;20096;-76
2022/08/04 02:02:35;;;;;;;8.07;7.38;;;;;;;18.80;91.04;100731.63;4986473;28;20077;-79
2022/08/04 02:05:02;;;;;;;7.05;6.45;;;;;;;18.78;91.28;100730.88;4976295;28;20073;-76
2022/08/04 02:07:53;;;;;;;7.65;6.90;;;;;;;18.77;91.28;100746.06;4990124;28;20041;-77
2022/08/04 02:10:29;;;;;;;7.82;7.22;;;;;;;18.75;91.59;100750.63;4992505;28;20042;-77
2022/08/04 02:13:26;;;;;;;7.63;6.93;;;;;;;18.72;92.01;100740.06;4979974;28;20037;-78
2022/08/04 02:16:16;;;;;;;7.82;7.13;;;;;;;18.70;92.44;100747.31;5000379;28;20174;-78
2022/08/04 02:19:09;;;;;;;11.95;7.90;;;;;;;18.65;92.70;100743.13;4997035;28;20044;-78
2022/08/04 02:21:40;;;;;;;8.35;7.47;;;;;;;18.60;92.49;100734.50;5008851;28;20061;-78
2022/08/04 02:24:15;;;;;;;8.70;7.90;;;;;;;18.55;92.59;100732.91;5009521;28;20052;-78
2022/08/04 02:26:48;;;;;;;7.82;7.22;;;;;;;18.51;92.69;100730.47;4981946;28;20049;-78
2022/08/04 02:29:31;;;;;;;8.73;8.02;;;;;;;18.48;92.98;100736.84;4961891;28;20038;-78
2022/08/04 02:32:05;;;;;;;7.72;7.13;;;;;;;18.46;93.18;100727.16;5013078;28;20096;-78
2022/08/04 02:34:42;;;;;;;7.97;7.30;;;;;;;18.41;93.56;100729.19;4985289;28;20057;-78
2022/08/04 02:37:10;;;;;;;7.82;7.22;;;;;;;18.37;93.66;100727.66;5000106;28;20038;-76
2022/08/04 02:39:41;;;;;;;8.13;7.32;;;;;;;18.32;93.88;100725.19;4980374;28;20045;-77
2022/08/04 02:42:14;;;;;;;7.80;7.20;;;;;;;18.29;93.58;100714.66;4982360;28;20056;-78
2022/08/04 02:44:42;;;;;;;8.10;7.40;;;;;;;18.24;93.97;100714.03;5011028;28;20068;-78
2022/08/04 02:47:09;;;;;;;7.97;7.30;;;;;;;18.19;94.30;100718.75;4996943;28;20038;-77
2022/08/04 02:49:36;;;;;;;14.75;8.50;;;;;;;18.16;94.48;100718.91;4991142;28;20128;-78
2022/08/04 02:52:09;;;;;;;25.05;11.35;;;;;;;18.12;94.66;100722.69;4989644;28;20045;-78
2022/08/04 02:54:41;;;;;;;13.57;9.40;;;;;;;18.07;94.38;100719.38;4992091;28;20033;-78
2022/08/04 02:57:11;;;;;;;20.63;9.45;;;;;;;18.02;94.93;100722.28;4987061;28;20046;-78
2022/08/04 03:00:06;;;;;;;16.00;9.63;;;;;;;17.98;94.67;100715.34;4992335;28;20531;-78
2022/08/04 03:02:48;;;;;;;9.85;8.02;;;;;;;17.92;94.91;100724.56;5002157;28;20034;-77
2022/08/04 03:05:21;;;;;;;8.73;7.28;;;;;;;17.86;94.55;100722.19;4984789;28;20056;-78
2022/08/04 03:08:11;;;;;;;13.10;7.95;;;;;;;17.82;95.33;100725.06;4986581;28;20117;-79
2022/08/04 03:11:04;;;;;;;9.55;8.30;;;;;;;17.79;95.62;100722.56;4979306;28;20038;-79
2022/08/04 03:13:37;;;;;;;9.25;8.20;;;;;;;17.72;95.57;100724.66;4990755;28;20099;-79
2022/08/04 03:16:22;;;;;;;9.15;7.80;;;;;;;17.67;95.78;100719.53;5007206;28;20415;-78
2022/08/04 03:19:27;;;;;;;8.77;7.88;;;;;;;17.63;96.39;100728.63;4989497;28;20402;-77
2022/08/04 03:22:31;;;;;;;10.52;8.85;;;;;;;17.63;97.03;100733.97;5003846;28;20096;-78
2022/08/04 03:25:14;;;;;;;10.88;8.32;;;;;;;17.59;97.58;100720.84;5003705;28;20038;-78
2022/08/04 03:27:59;;;;;;;9.60;8.75;;;;;;;17.52;97.86;100730.09;5008323;28;20041;-78
2022/08/04 03:31:01;;;;;;;8.73;7.90;;;;;;;17.47;98.09;100724.97;5009070;28;20045;-78
2022/08/04 03:33:39;;;;;;;8.35;7.55;;;;;;;17.42;98.17;100722.53;5005545;28;20052;-78
2022/08/04 03:36:48;;;;;;;8.40;7.70;;;;;;;17.40;98.81;100721.75;4989079;28;20040;-78
2022/08/04 03:39:52;;;;;;;8.70;7.78;;;;;;;17.37;99.12;100721.88;5001104;28;20038;-77
2022/08/04 03:42:21;;;;;;;9.90;9.07;;;;;;;17.35;99.16;100718.41;5012401;28;20042;-79
2022/08/04 03:45:10;;;;;;;9.27;8.38;;;;;;;17.34;99.26;100719.34;4985847;28;20038;-77
2022/08/04 03:48:30;;;;;;;10.27;8.63;;;;;;;17.30;99.59;100712.41;5008553;28;20491;-77
2022/08/04 03:54:42;;;;;;;9.15;8.32;;;;;;;17.28;100.00;100716.09;5005577;28;20522;-79
2022/08/04 03:57:28;;;;;;;9.23;8.43;;;;;;;17.26;100.00;100716.19;4988504;28;20056;-78
2022/08/04 04:00:08;;;;;;;9.60;8.73;;;;;;;17.24;100.00;100712.72;4987643;28;20406;-78
2022/08/04 04:03:16;;;;;;;8.43;7.63;;;;;;;17.26;100.00;100716.19;4972791;28;20872;-79
2022/08/04 04:06:30;;;;;;;9.20;8.32;;;;;;;17.26;100.00;100712.66;5013453;28;20034;-78
2022/08/04 04:09:45;;;;;;;9.40;8.60;;;;;;;17.25;100.00;100702.91;5003720;28;20470;-78
2022/08/04 04:12:56;;;;;;;10.13;9.20;;;;;;;17.23;100.00;100713.63;5005898;28;20533;-78
2022/08/04 04:15:34;;;;;;;10.20;9.30;;;;;;;17.24;100.00;100711.84;5003688;28;20042;-78
2022/08/04 04:18:22;;;;;;;10.57;9.68;;;;;;;17.25;100.00;100714.44;5007072;28;20034;-78
2022/08/04 04:21:04;;;;;;;10.00;9.10;;;;;;;17.26;100.00;100715.31;4996812;28;20494;-78
2022/08/04 04:24:00;;;;;;;9.77;8.90;;;;;;;17.27;100.00;100722.38;5006602;28;20051;-77
2022/08/04 04:26:44;;;;;;;10.65;9.65;;;;;;;17.26;100.00;100716.19;4992745;28;20116;-78
2022/08/04 04:29:58;;;;;;;9.65;8.75;;;;;;;17.27;100.00;100719.72;5007729;28;20703;-77
2022/08/04 04:32:46;;;;;;;9.77;8.77;;;;;;;17.35;100.00;100720.22;4992455;28;20045;-78
2022/08/04 04:35:28;;;;;;;10.65;9.75;;;;;;;17.48;100.00;100717.81;4974190;28;20046;-78
2022/08/04 04:38:01;;;;;;;10.13;9.13;;;;;;;17.54;100.00;100725.53;4999330;28;20042;-77
2022/08/04 04:40:39;;;;;;;10.00;9.13;;;;;;;17.55;100.00;100719.25;5033883;28;20053;-76
2022/08/04 04:43:33;;;;;;;10.82;9.73;;;;;;;17.55;100.00;100722.78;4997335;28;20034;-76
2022/08/04 04:46:36;;;;;;;11.10;10.07;;;;;;;17.57;100.00;100723.59;5010987;28;20053;-77
2022/08/04 04:49:36;;;;;;;10.68;9.68;;;;;;;17.57;100.00;100723.59;5007568;28;20690;-78
2022/08/04 04:52:27;;;;;;;11.73;10.57;;;;;;;17.57;100.00;100726.28;4994036;28;20038;-78
2022/08/04 04:55:07;;;;;;;11.55;10.38;;;;;;;17.56;100.00;100727.19;4979790;28;20041;-79
2022/08/04 04:57:35;;;;;;;10.77;9.88;;;;;;;17.63;100.00;100728.63;4989412;28;20403;-77
2022/08/04 05:00:23;;;;;;;11.48;10.45;;;;;;;17.66;100.00;100727.63;5011472;28;20059;-77
2022/08/04 05:03:27;;;;;;;11.23;9.95;;;;;;;17.70;100.00;100723.88;5000102;28;20491;-78
2022/08/04 05:06:13;;;;;;;11.00;10.00;;;;;;;17.71;100.00;100729.16;5009367;28;20038;-76
2022/08/04 05:08:53;;;;;;;11.82;10.65;;;;;;;17.98;100.00;100736.75;5001287;28;20050;-77
2022/08/04 05:11:39;;;;;;;10.73;9.77;;;;;;;18.10;100.00;100728.13;5009131;28;20150;-78
2022/08/04 05:14:11;;;;;;;10.00;9.15;;;;;;;18.28;98.61;100727.19;4977757;28;20519;-77
2022/08/04 05:17:27;;;;;;;10.43;9.48;;;;;;;18.35;98.46;100729.53;4980401;28;20049;-77
2022/08/04 05:20:05;;;;;;;10.65;9.65;;;;;;;18.34;98.80;100719.78;4972635;28;20042;-79
2022/08/04 05:22:43;;;;;;;10.60;9.20;;;;;;;18.38;99.79;100729.38;4991247;28;20140;-79
2022/08/04 05:25:18;;;;;;;10.57;9.57;;;;;;;18.40;100.00;100727.47;4964087;28;20061;-77
2022/08/04 05:28:14;;;;;;;9.82;9.02;;;;;;;18.46;99.95;100727.16;4981417;28;20586;-78
2022/08/04 05:30:47;;;;;;;11.88;10.68;;;;;;;18.54;100.00;100727.63;5000880;28;20069;-79
2022/08/04 05:33:25;;;;;;;12.77;10.40;;;;;;;18.69;98.25;100734.03;4981362;28;20034;-78
2022/08/04 05:35:58;;;;;;;10.27;9.38;;;;;;;18.79;98.00;100720.06;4994119;28;20042;-79
2022/08/04 05:38:50;;;;;;;9.43;8.63;;;;;;;18.95;97.10;100722.78;4978844;28;20104;-79
2022/08/04 05:41:17;;;;;;;10.13;9.15;;;;;;;19.11;96.84;100729.03;4993831;28;20499;-79
2022/08/04 05:43:44;;;;;;;9.45;8.65;;;;;;;19.66;94.42;100728.66;4980408;28;20048;-77
2022/08/04 05:46:12;;;;;;;10.40;9.38;;;;;;;20.34;88.38;100722.88;4993321;28;20041;-79
2022/08/04 05:48:40;;;;;;;9.90;9.02;;;;;;;20.72;85.51;100717.91;4983883;28;20038;-79
2022/08/04 05:51:09;;;;;;;64.97;15.02;;;;;;;20.95;84.21;100719.19;4963828;28;20042;-78
2022/08/04 05:53:37;;;;;;;38.72;11.95;;;;;;;20.90;84.16;100717.72;5024614;28;20041;-77
2022/08/04 05:56:05;;;;;;;14.90;9.10;;;;;;;20.85;84.33;100723.41;4987149;28;20058;-78
2022/08/04 05:58:33;;;;;;;11.43;8.65;;;;;;;21.03;81.56;100719.56;5007633;28;20046;-78
2022/08/04 06:01:00;;;;;;;9.02;8.13;;;;;;;21.48;81.09;100722.13;4990752;28;20100;-78
2022/08/04 06:03:31;;;;;;;8.80;7.90;;;;;;;22.25;76.36;100720.59;5071224;23;20021;-80
2022/08/04 06:05:58;;;;;;;8.07;7.35;;;;;;;22.48;74.96;100720.75;4994654;28;20099;-81
2022/08/04 06:08:25;;;;;;;8.65;7.78;;;;;;;22.80;73.91;100720.34;4993542;28;20072;-80
2022/08/04 06:10:53;;;;;;;10.23;8.10;;;;;;;24.37;66.62;100716.00;4990125;28;20044;-80
2022/08/04 06:13:25;;;;;;;9.07;8.18;;;;;;;26.30;58.74;100722.84;5003320;28;20070;-80
2022/08/04 06:16:13;;;;;;;8.07;7.43;;;;;;;28.12;51.22;100722.94;5009990;28;20038;-80
2022/08/04 06:18:56;;;;;;;;;;;;;;;28.91;49.47;100720.84;5002859;28;20077;-80
2022/08/04 06:21:45;;;;;;;7.78;7.18;;;;;;;29.46;47.72;100723.63;5010053;28;19925;-81
2022/08/04 06:24:15;;;;;;;8.02;7.22;;;;;;;29.40;47.66;100725.09;4977103;28;20064;-81
2022/08/04 06:26:42;;;;;;;7.28;6.78;;;;;;;29.06;47.68;100727.53;5004035;28;20044;-81
2022/08/04 06:29:16;;;;;;;8.70;7.75;;;;;;;28.91;49.56;100734.44;4982005;28;20040;-80
2022/08/04 06:31:56;;;;;;;7.20;6.60;;;;;;;28.84;48.88;100727.84;4992093;28;20045;-80
2022/08/04 06:34:43;;;;;;;7.00;6.50;;;;;;;28.91;48.73;100731.72;5010959;28;20042;-80
2022/08/04 06:37:10;;;;;;;7.22;6.63;;;;;;;28.87;47.22;100728.44;4990607;28;20110;-82
2022/08/04 06:39:50;;;;;;;7.15;6.50;;;;;;;28.92;49.29;100727.16;4975025;28;20123;-81
2022/08/04 06:42:18;;;;;;;9.07;7.30;;;;;;;29.41;47.36;100725.94;5003981;28;20036;-80
2022/08/04 06:44:51;;;;;;;7.85;6.70;;;;;;;29.75;45.52;100718.03;5004148;28;20041;-81
2022/08/04 06:47:19;;;;;;;7.38;6.68;;;;;;;29.98;43.79;100722.00;4989364;28;20040;-81
2022/08/04 06:49:49;;;;;;;7.60;6.47;;;;;;;30.27;43.41;100721.81;5007508;28;20405;-81
2022/08/04 06:52:36;;;;;;;7.15;6.53;;;;;;;30.46;42.83;100722.66;4994880;28;20034;-80
2022/08/04 06:55:05;;;;;;;6.97;6.38;;;;;;;30.73;42.97;100730.72;4983799;28;20073;-80
2022/08/04 06:57:33;;;;;;;9.88;9.07;;;;;;;30.76;43.79;100724.91;4996496;28;20048;-82
2022/08/04 07:00:03;;;;;;;20.30;7.28;;;;;;;30.85;42.31;100717.66;4994780;28;20482;-80
2022/08/04 07:02:33;;;;;;;6.68;5.82;;;;;;;30.95;40.48;100714.81;5004977;28;20130;-80
2022/08/04 07:05:00;;;;;;;7.28;6.57;;;;;;;31.17;41.63;100713.38;4990803;28;20061;-80
2022/08/04 07:07:33;;;;;;;438.45;70.10;;;;;;;31.51;39.93;100722.44;4987783;28;20044;-81
2022/08/04 07:10:21;;;;;;;45.25;11.73;;;;;;;31.51;39.23;100721.56;4976075;28;20099;-82
2022/08/04 07:12:49;;;;;;;7.30;6.60;;;;;;;31.41;38.12;100718.13;4985360;28;20096;-82
2022/08/04 07:15:19;;;;;;;6.93;6.22;;;;;;;31.41;38.17;100710.78;4985856;28;20703;-81
2022/08/04 07:17:46;;;;;;;6.78;6.13;;;;;;;31.45;37.89;100717.66;4979588;28;20512;-81
2022/08/04 07:20:18;;;;;;;6.90;5.90;;;;;;;31.57;39.39;100716.31;4996073;28;20116;-82
2022/08/04 07:23:03;;;;;;;6.82;6.25;;;;;;;31.75;37.59;100721.66;4986193;28;20072;-82
2022/08/04 07:25:30;;;;;;;7.18;6.47;;;;;;;32.16;37.24;100717.13;4987881;28;20069;-82
2022/08/04 07:28:18;;;;;;;7.50;6.85;;;;;;;32.23;35.78;100714.56;4992107;28;20088;-82
2022/08/04 07:30:46;;;;;;;6.47;5.80;;;;;;;32.39;35.76;100722.81;5009036;28;20053;-81
2022/08/04 07:33:15;;;;;;;7.45;6.53;;;;;;;32.72;36.14;100711.84;5005450;28;20126;-81
2022/08/04 07:35:42;;;;;;;6.20;5.63;;;;;;;32.94;35.84;100708.38;5006954;28;20041;-82
2022/08/04 07:38:28;;;;;;;6.53;5.90;;;;;;;32.76;35.02;100699.50;4993762;28;20046;-82
2022/08/04 07:40:55;;;;;;;6.35;5.85;;;;;;;32.76;34.66;100704.97;4988313;28;20063;-82
2022/08/04 07:43:22;;;;;;;6.40;5.80;;;;;;;32.91;34.06;100700.53;4994730;28;20041;-82
2022/08/04 07:45:48;;;;;;;12.77;6.60;;;;;;;33.32;34.42;100701.22;4985006;28;20418;-82
2022/08/04 07:48:17;;;;;;;5.80;5.30;;;;;;;33.21;34.14;100698.00;4987366;28;20571;-81
2022/08/04 07:50:45;;;;;;;5.88;5.30;;;;;;;33.50;34.24;100701.00;4986719;28;20064;-79
2022/08/04 07:53:12;;;;;;;5.43;4.93;;;;;;;33.85;32.81;100694.09;4991939;28;20069;-79
2022/08/04 07:56:00;;;;;;;5.57;5.03;;;;;;;34.21;32.09;100698.13;5010547;28;20038;-79
2022/08/04 07:58:27;;;;;;;5.82;5.10;;;;;;;34.29;31.92;100698.91;4998048;28;20053;-79
2022/08/04 08:00:56;;;;;;;5.47;5.07;;;;;;;34.18;32.07;100698.50;4979435;28;20042;-79
2022/08/04 08:03:24;;;;;;;5.47;4.80;;;;;;;34.48;31.77;100697.59;5006680;28;20387;-79
2022/08/04 08:05:51;;;;;;;7.85;5.22;;;;;;;34.71;31.24;100692.88;4980550;28;20067;-80
2022/08/04 08:08:38;;;;;;;5.00;4.60;;;;;;;34.96;30.81;100696.25;5004720;28;20095;-80
2022/08/04 08:11:06;;;;;;;5.30;4.80;;;;;;;35.18;30.67;100690.84;5014763;28;20061;-83
2022/08/04 08:13:35;;;;;;;5.15;4.68;;;;;;;35.21;29.13;100690.44;4994655;28;20072;-82
2022/08/04 08:16:02;;;;;;;5.28;4.75;;;;;;;35.00;29.88;100693.97;4997044;28;20044;-81
2022/08/04 08:18:29;;;;;;;5.20;4.70;;;;;;;34.84;30.14;100689.50;4997834;28;20049;-82
2022/08/04 08:20:57;;;;;;;4.97;4.57;;;;;;;34.14;30.76;100676.97;4977232;28;20042;-81
2022/08/04 08:23:24;;;;;;;5.80;4.28;;;;;;;34.58;30.58;100675.38;5011370;28;20045;-80
2022/08/04 08:25:51;;;;;;;5.03;4.22;;;;;;;34.83;29.93;100676.81;4991634;28;20054;-81
2022/08/04 08:28:18;;;;;;;11.50;6.25;;;;;;;35.13;29.33;100676.81;5014370;28;20056;-80
2022/08/04 08:30:45;;;;;;;4.45;4.05;;;;;;;35.46;27.64;100674.53;4995990;28;20045;-80
2022/08/04 08:33:19;;;;;;;5.47;4.25;;;;;;;35.59;28.71;100674.69;5008324;28;20103;-80
2022/08/04 08:36:02;;;;;;;4.53;4.13;;;;;;;35.76;28.01;100676.16;4988431;28;20072;-81
2022/08/04 08:38:51;;;;;;;4.22;3.92;;;;;;;35.83;27.74;100673.47;5016250;28;20042;-80
2022/08/04 08:41:39;;;;;;;4.20;3.83;;;;;;;36.15;26.25;100672.09;5019779;28;20045;-81
2022/08/04 08:44:40;;;;;;;4.10;3.78;;;;;;;35.89;26.38;100666.34;5017549;28;20048;-82
2022/08/04 08:47:23;;;;;;;4.15;3.80;;;;;;;35.86;27.74;100664.81;5012319;28;20509;-81
2022/08/04 08:50:12;;;;;;;4.47;4.18;;;;;;;36.02;27.91;100663.75;4983136;28;20048;-80
2022/08/04 08:53:06;;;;;;;4.93;4.13;;;;;;;36.02;26.39;100659.09;5002167;28;20037;-81
2022/08/04 08:56:15;;;;;;;4.25;3.80;;;;;;;36.20;26.41;100663.25;5018617;28;20144;-80
2022/08/04 08:58:44;;;;;;;3.80;3.30;;;;;;;36.62;25.09;100662.34;4997628;28;20045;-81
2022/08/04 09:01:24;;;;;;;3.90;3.60;;;;;;;36.88;24.79;100664.44;5005938;28;20494;-81
2022/08/04 09:04:25;;;;;;;3.80;3.50;;;;;;;36.42;25.55;100658.63;4992202;28;20034;-80
2022/08/04 09:07:23;;;;;;;4.30;3.90;;;;;;;36.82;25.06;100663.31;5024683;28;20053;-81
2022/08/04 09:10:02;;;;;;;3.20;2.90;;;;;;;36.39;24.37;100656.25;4997838;28;20041;-80
2022/08/04 09:12:40;;;;;;;3.60;3.30;;;;;;;36.48;24.40;100653.13;5007665;28;20069;-81
2022/08/04 09:15:13;;;;;;;3.95;2.90;;;;;;;36.56;22.65;100644.72;5041772;28;20049;-80
2022/08/04 09:17:44;;;;;;;3.80;3.30;;;;;;;36.73;21.78;100653.50;5010952;28;20056;-80
2022/08/04 09:20:37;;;;;;;3.42;3.13;;;;;;;37.16;22.77;100653.34;4996262;28;20056;-80
2022/08/04 09:23:15;;;;;;;3.47;3.10;;;;;;;37.13;22.54;100645.50;4993111;28;20040;-81
2022/08/04 09:25:48;;;;;;;4.18;3.45;;;;;;;37.31;22.90;100650.47;5000491;28;20037;-82
2022/08/04 09:28:22;;;;;;;3.35;3.15;;;;;;;36.89;22.76;100647.72;4980885;28;20053;-80
2022/08/04 09:31:16;;;;;;;3.30;2.90;;;;;;;37.24;21.85;100658.69;5009421;28;20072;-80
2022/08/04 09:34:00;;;;;;;3.33;2.53;;;;;;;37.59;21.45;100645.72;4999827;28;20610;-81
2022/08/04 09:36:38;;;;;;;2.88;2.67;;;;;;;37.40;20.78;100633.53;5015606;28;20069;-80
2022/08/04 09:39:10;;;;;;;3.17;2.50;;;;;;;37.82;20.93;100642.56;5032257;28;20945;-81
2022/08/04 09:41:46;;;;;;;3.63;3.08;;;;;;;37.95;20.61;100636.25;5027091;28;20030;-80
2022/08/04 09:44:27;;;;;;;3.05;2.85;;;;;;;38.28;20.28;100641.78;5015280;28;20045;-81
2022/08/04 09:47:32;;;;;;;3.00;2.80;;;;;;;38.32;20.48;100637.53;5006781;28;20465;-81
2022/08/04 09:50:27;;;;;;;2.83;2.63;;;;;;;38.19;20.41;100635.63;5005768;28;20163;-81
2022/08/04 09:53:12;;;;;;;2.80;2.58;;;;;;;38.16;20.74;100633.25;5005228;28;20034;-81
2022/08/04 09:55:48;;;;;;;2.80;2.60;;;;;;;38.38;20.98;100631.16;5013083;28;20045;-82
2022/08/04 09:58:37;;;;;;;5.13;3.13;;;;;;;38.23;20.56;100634.16;5013144;28;20135;-81
2022/08/04 10:01:09;;;;;;;35.80;8.35;;;;;;;38.72;21.29;100629.22;5005547;28;20041;-81
2022/08/04 10:03:48;;;;;;;3.42;3.13;;;;;;;38.50;21.54;100629.44;5008922;28;20045;-81
2022/08/04 10:06:52;;;;;;;3.42;3.13;;;;;;;38.50;21.07;100615.63;5023797;28;20049;-81
2022/08/04 10:09:47;;;;;;;4.97;3.35;;;;;;;38.91;20.64;100620.00;5010411;28;20042;-80
2022/08/04 10:12:30;;;;;;;4.90;3.00;;;;;;;39.08;20.24;100615.69;4999794;28;20048;-81
2022/08/04 10:15:10;;;;;;;4.50;2.90;;;;;;;38.83;21.29;100617.50;5001595;28;20037;-80
2022/08/04 10:17:59;;;;;;;3.60;3.30;;;;;;;38.76;20.49;100613.91;5030552;28;20049;-80
2022/08/04 10:20:41;;;;;;;3.30;3.05;;;;;;;37.77;21.91;100609.28;4994895;28;20034;-80
2022/08/04 10:23:32;;;;;;;4.50;3.00;;;;;;;38.07;21.85;100608.88;4996602;28;20064;-81
2022/08/04 10:26:34;;;;;;;3.50;3.20;;;;;;;37.87;21.72;100620.75;5019979;28;20044;-81
2022/08/04 10:29:14;;;;;;;4.20;3.20;;;;;;;38.31;21.44;100613.75;4992208;28;20037;-81
2022/08/04 10:31:51;;;;;;;5.07;3.20;;;;;;;38.38;20.90;100611.84;4993304;28;20034;-80
2022/08/04 10:34:20;;;;;;;3.10;2.88;;;;;;;38.73;20.47;100603.31;4994290;28;20555;-81
2022/08/04 10:37:17;;;;;;;3.50;3.20;;;;;;;38.67;20.64;100604.13;5023273;28;20061;-80
2022/08/04 10:42:56;;;;;;;3.25;2.90;;;;;;;39.02;20.34;100605.53;5010555;28;20033;-81
2022/08/04 10:45:26;;;;;;;3.28;3.08;;;;;;;39.12;20.12;100599.53;5009367;28;20045;-81
2022/08/04 10:48:04;;;;;;;3.55;3.03;;;;;;;39.24;19.74;100592.28;5011153;28;20033;-81
2022/08/04 10:50:32;;;;;;;6.63;3.15;;;;;;;38.96;20.42;100587.06;4994775;28;20045;-81
2022/08/04 10:53:06;;;;;;;3.53;3.22;;;;;;;38.98;20.27;100579.41;5012022;28;20052;-81
2022/08/04 10:55:46;;;;;;;3.13;2.85;;;;;;;39.03;20.04;100584.28;4988691;28;20037;-80
2022/08/04 10:58:39;;;;;;;3.75;3.00;;;;;;;38.91;19.72;100586.03;5009888;28;20038;-81
2022/08/04 11:01:26;;;;;;;3.75;3.17;;;;;;;39.22;19.81;100583.34;5005208;28;20337;-81
2022/08/04 11:04:34;;;;;;;8.32;3.55;;;;;;;39.61;19.16;100574.00;5001564;28;20075;-82
2022/08/04 11:07:01;;;;;;;5.47;2.95;;;;;;;39.49;18.89;100578.50;5023688;28;20057;-82
2022/08/04 11:09:29;;;;;;;3.63;2.95;;;;;;;39.18;19.39;100581.25;5019690;28;20049;-81
2022/08/04 11:12:22;;;;;;;4.20;3.10;;;;;;;39.18;20.06;100576.56;5020824;28;20470;-82
2022/08/04 11:15:06;;;;;;;3.40;3.17;;;;;;;39.06;19.50;100575.53;5008829;28;20041;-81
2022/08/04 11:17:40;;;;;;;6.43;3.20;;;;;;;38.67;20.18;100565.47;4996858;28;20037;-80
2022/08/04 11:20:10;;;;;;;3.15;2.92;;;;;;;38.42;20.85;100563.41;4994094;28;20060;-82
2022/08/04 11:23:03;;;;;;;3.72;3.33;;;;;;;38.80;20.66;100558.03;5011963;28;20037;-84
2022/08/04 11:25:55;;;;;;;3.97;3.67;;;;;;;39.18;19.92;100571.03;5018383;28;20037;-81
2022/08/04 11:28:38;;;;;;;9.23;8.53;;;;;;;39.62;19.67;100566.56;5010964;28;20454;-80
2022/08/04 11:31:07;;;;;;;;;;;;;;;39.67;19.07;100556.50;5007325;28;20038;-80
2022/08/04 11:34:03;;;;;;;12.15;10.88;;;;;;;39.75;19.72;100560.91;5010655;28;19928;-80
2022/08/04 11:36:53;;;;;;;8.07;7.30;;;;;;;39.45;19.35;100560.69;5037311;28;20041;-82
2022/08/04 11:39:27;;;;;;;13.95;12.20;;;;;;;39.47;19.79;100547.47;5009300;28;20473;-82
2022/08/04 11:42:06;;;;;;;13.05;11.75;;;;;;;39.61;19.68;100543.59;5027705;28;20103;-82
2022/08/04 11:44:41;;;;;;;14.57;11.57;;;;;;;39.40;20.46;100547.53;5013773;28;20441;-80
2022/08/04 11:47:18;;;;;;;16.58;14.82;;;;;;;39.73;20.65;100552.00;5000044;28;20494;-80
2022/08/04 11:49:52;;;;;;;3.50;3.20;;;;;;;39.64;19.63;100554.19;5024426;28;20038;-81
2022/08/04 11:52:25;;;;;;;12.35;10.63;;;;;;;39.23;20.16;100546.34;4984212;28;20041;-80
2022/08/04 11:54:53;;;;;;;4.13;3.72;;;;;;;38.72;20.42;100546.38;5009548;28;20034;-81
2022/08/04 11:57:41;;;;;;;7.82;7.03;;;;;;;38.90;20.73;100551.19;5017446;28;20099;-81
2022/08/04 12:00:11;;;;;;;4.70;3.53;;;;;;;38.80;20.80;100552.50;5015089;28;20052;-80
2022/08/04 12:02:49;;;;;;;4.35;3.28;;;;;;;39.03;20.58;100557.50;4997873;28;20453;-80
2022/08/04 12:05:29;;;;;;;3.83;3.53;;;;;;;38.98;21.13;100545.41;5002753;23;20042;-92
2022/08/04 12:08:22;;;;;;;4.00;3.00;;;;;;;39.06;20.55;100542.38;4960790;28;20032;-92
2022/08/04 12:11:12;;;;;;;3.13;2.83;;;;;;;38.99;20.42;100541.56;4966953;28;20046;-92
2022/08/04 12:13:52;;;;;;;3.08;2.88;;;;;;;38.64;21.53;100546.59;4963018;28;20031;-92
2022/08/04 12:16:35;;;;;;;3.30;3.00;;;;;;;38.18;21.41;100542.88;4994940;28;20043;-93
2022/08/04 12:19:07;;;;;;;3.25;2.92;;;;;;;38.37;21.93;100527.34;4978167;28;20026;-95
2022/08/04 12:21:36;;;;;;;4.10;2.88;;;;;;;38.93;21.30;100543.31;4997315;28;20097;-94
2022/08/04 12:24:28;;;;;;;3.50;3.20;;;;;;;39.09;20.34;100530.88;4982255;28;20069;-92
2022/08/04 12:26:58;;;;;;;3.53;3.20;;;;;;;39.42;19.99;100523.25;4963236;28;20058;-93